KLNK

Lincoln Airport

Lincoln, Nebraska, USA
METAR KLNK 170054Z 00000KT 10SM CLR 03/M03 A3030 RMK AO2 SLP272 T00281033
Observed Flight Rules
Dec-17 @ 00:54 UTC (8 minutes ago) Visual Flight Rules
Visibility Clouds
10 miles
  • Clear skies
Temperatures Readings
Current 3°C / 37°F
Dewpoint -3°C / 27°F
Humidity 65%
Altimeter 30.3" Hg
Pressure 1027.2 hPa
Elevation 364
METAR KLNK 170054Z 00000KT 10SM CLR 03/M03 A3030 RMK AO2 SLP272 T00281033
Observed Flight Rules
Dec-17 @ 00:54 UTC
(8 minutes ago)
VFR
Clouds
  • Clear skies
Temperature Dewpoint
3°C / 37°F -3°C / 27°F
Humidity Altimeter Pressure
65% 30.3" Hg 1027.2 hPa